createdAt,value
2022-11-06T00:04:44.602Z,7.38
2022-11-06T00:09:47.317Z,7.26
2022-11-06T00:14:50.044Z,7.17
2022-11-06T00:19:52.751Z,7.06
2022-11-06T00:24:55.532Z,6.98
2022-11-06T00:29:58.247Z,6.92
2022-11-06T00:35:01.215Z,6.87
2022-11-06T00:40:04.802Z,6.84
2022-11-06T00:45:08.605Z,6.83
2022-11-06T00:50:11.381Z,6.85
2022-11-06T00:55:14.141Z,6.85
2022-11-06T01:00:20.979Z,6.85
2022-11-06T01:05:23.677Z,6.86
2022-11-06T01:10:26.377Z,6.77
2022-11-06T01:15:29.057Z,6.62
2022-11-06T01:20:31.775Z,6.47
2022-11-06T01:25:34.678Z,6.40
2022-11-06T01:30:37.576Z,6.34
2022-11-06T01:35:50.904Z,6.28
2022-11-06T01:40:53.909Z,6.24
2022-11-06T01:45:56.725Z,6.22
2022-11-06T01:50:59.559Z,6.21
2022-11-06T01:56:05.605Z,6.20
2022-11-06T02:01:08.526Z,6.18
2022-11-06T02:06:11.508Z,6.21
2022-11-06T02:11:14.227Z,6.27
2022-11-06T02:16:40.069Z,6.26
2022-11-06T02:22:04.853Z,6.17
2022-11-06T02:27:12.262Z,6.13
2022-11-06T02:32:23.076Z,6.11
2022-11-06T02:37:32.550Z,6.11
2022-11-06T02:42:41.388Z,6.10
2022-11-06T02:47:47.361Z,6.02
2022-11-06T02:53:02.119Z,5.93
2022-11-06T02:58:13.509Z,5.87
2022-11-06T03:03:33.226Z,5.87
2022-11-06T03:08:44.652Z,5.80
2022-11-06T03:14:13.568Z,5.77
2022-11-06T03:19:27.324Z,5.75
2022-11-06T03:24:35.141Z,5.77
2022-11-06T03:29:52.118Z,5.74
2022-11-06T03:35:04.076Z,5.67
2022-11-06T03:40:11.757Z,5.59
2022-11-06T03:45:20.084Z,5.59
2022-11-06T03:50:29.570Z,5.60
2022-11-06T03:55:38.527Z,5.52
2022-11-06T04:00:43.593Z,5.48
2022-11-06T04:05:52.414Z,5.45
2022-11-06T04:11:18.740Z,5.46
2022-11-06T04:16:22.420Z,5.44
2022-11-06T04:21:41.391Z,5.40
2022-11-06T04:26:58.077Z,5.35
2022-11-06T04:32:12.074Z,5.30
2022-11-06T04:37:39.301Z,5.29
2022-11-06T04:43:05.593Z,5.21
2022-11-06T04:48:10.237Z,5.14
2022-11-06T04:53:15.292Z,5.12
2022-11-06T04:58:18.229Z,5.06
2022-11-06T05:03:20.935Z,5.07
2022-11-06T05:08:23.819Z,5.06
2022-11-06T05:13:26.617Z,5.00
2022-11-06T05:18:29.419Z,4.98
2022-11-06T05:23:32.115Z,5.00
2022-11-06T05:28:35.123Z,4.91
2022-11-06T05:33:38.337Z,4.83
2022-11-06T05:38:41.238Z,4.73
2022-11-06T05:43:43.908Z,4.66
2022-11-06T05:48:46.740Z,4.63
2022-11-06T05:53:49.420Z,4.63
2022-11-06T05:58:52.150Z,4.63
2022-11-06T06:03:54.940Z,4.65
2022-11-06T06:08:57.635Z,4.65
2022-11-06T06:14:00.847Z,4.64
2022-11-06T06:19:03.901Z,4.67
2022-11-06T06:24:07.344Z,4.67
2022-11-06T06:29:10.073Z,4.63
2022-11-06T06:34:12.771Z,4.59
2022-11-06T06:39:15.471Z,4.57
2022-11-06T06:44:18.167Z,4.58
2022-11-06T06:49:20.853Z,4.58
2022-11-06T06:54:23.570Z,4.59
2022-11-06T06:59:28.337Z,4.62
2022-11-06T07:04:31.027Z,4.57
2022-11-06T07:09:34.042Z,4.64
2022-11-06T07:14:36.820Z,4.73
2022-11-06T07:19:39.926Z,4.84
2022-11-06T07:24:42.628Z,4.88
2022-11-06T07:29:45.429Z,4.83
2022-11-06T07:34:48.128Z,4.84
2022-11-06T07:39:51.036Z,4.94
2022-11-06T07:44:55.678Z,5.06
2022-11-06T07:49:58.385Z,5.27
2022-11-06T07:55:01.142Z,5.53
2022-11-06T08:00:06.170Z,5.77
2022-11-06T08:05:08.868Z,5.96
2022-11-06T08:10:11.833Z,6.07
2022-11-06T08:15:14.656Z,6.06
2022-11-06T08:20:17.558Z,6.06
2022-11-06T08:25:20.342Z,6.01
2022-11-06T08:30:23.346Z,5.99
2022-11-06T08:35:26.148Z,5.98
2022-11-06T08:40:31.117Z,6.03
2022-11-06T08:45:43.169Z,6.14
2022-11-06T08:50:46.020Z,6.23
2022-11-06T08:55:48.774Z,6.24
2022-11-06T09:00:51.605Z,6.24
2022-11-06T09:05:54.356Z,6.17
2022-11-06T09:10:58.910Z,6.19
2022-11-06T09:16:02.284Z,6.30
2022-11-06T09:21:05.219Z,6.35
2022-11-06T09:26:07.887Z,6.34
2022-11-06T09:31:10.789Z,6.46
2022-11-06T09:36:13.498Z,6.63
2022-11-06T09:41:30.525Z,6.69
2022-11-06T09:46:40.436Z,6.71
2022-11-06T09:51:50.869Z,6.74
2022-11-06T09:56:59.689Z,6.91
2022-11-06T10:02:03.191Z,7.11
2022-11-06T10:07:23.954Z,7.29
2022-11-06T10:13:04.336Z,7.52
2022-11-06T10:18:35.815Z,7.65
2022-11-06T10:23:47.421Z,7.70
2022-11-06T10:29:12.342Z,8.48
2022-11-06T10:34:21.791Z,9.58
2022-11-06T10:39:32.973Z,9.68
2022-11-06T10:44:35.617Z,10.04
2022-11-06T10:49:46.058Z,9.96
2022-11-06T10:54:54.849Z,10.99
2022-11-06T10:59:57.819Z,11.52
2022-11-06T11:05:00.741Z,11.90
2022-11-06T11:10:28.663Z,13.13
2022-11-06T11:15:44.975Z,15.00
2022-11-06T11:20:49.986Z,16.87
2022-11-06T11:25:55.142Z,18.54
2022-11-06T11:31:01.784Z,20.14
2022-11-06T11:36:06.824Z,21.57
2022-11-06T11:41:14.609Z,22.69
2022-11-06T11:46:20.936Z,23.88
2022-11-06T11:51:32.179Z,24.57
2022-11-06T12:02:22.164Z,25.94
2022-11-06T12:07:32.103Z,26.46
2022-11-06T12:12:37.055Z,26.96
2022-11-06T12:17:41.473Z,27.47
2022-11-06T12:22:47.878Z,27.58
2022-11-06T12:27:58.461Z,27.62
2022-11-06T12:33:10.688Z,26.62
2022-11-06T12:38:38.569Z,25.60
2022-11-06T12:43:45.766Z,24.24
2022-11-06T12:49:22.371Z,21.95
2022-11-06T12:54:40.229Z,19.96
2022-11-06T12:59:55.212Z,18.24
2022-11-06T13:05:23.192Z,17.00
2022-11-06T13:10:50.251Z,15.99
2022-11-06T13:16:00.645Z,15.38
2022-11-06T13:21:15.368Z,14.77
2022-11-06T13:26:54.843Z,14.12
2022-11-06T13:32:02.587Z,13.56
2022-11-06T13:37:17.527Z,13.51
2022-11-06T13:42:31.566Z,13.38
2022-11-06T13:47:47.274Z,13.24
2022-11-06T13:52:56.930Z,13.06
2022-11-06T13:58:24.720Z,12.71
2022-11-06T14:03:45.137Z,12.60
2022-11-06T14:08:52.377Z,12.37
2022-11-06T14:14:11.540Z,12.09
2022-11-06T14:19:27.021Z,11.79
2022-11-06T14:24:37.300Z,11.55
2022-11-06T14:29:39.957Z,11.32
2022-11-06T14:34:43.405Z,11.09
2022-11-06T14:39:52.561Z,10.90
2022-11-06T14:45:17.980Z,10.71
2022-11-06T14:50:50.256Z,10.52
2022-11-06T14:55:58.095Z,10.36
2022-11-06T15:01:26.330Z,10.27
2022-11-06T15:06:29.055Z,10.18
2022-11-06T15:11:47.899Z,10.08
2022-11-06T15:16:55.501Z,9.96
2022-11-06T15:22:37.520Z,9.81
2022-11-06T15:27:59.369Z,9.66
2022-11-06T15:33:05.733Z,9.51
2022-11-06T15:38:15.596Z,9.37
2022-11-06T15:43:24.464Z,9.30
2022-11-06T15:48:27.152Z,9.20
2022-11-06T15:53:30.772Z,9.13
2022-11-06T15:58:36.234Z,9.04
2022-11-06T16:03:53.465Z,8.96
2022-11-06T16:08:57.391Z,8.86
2022-11-06T16:14:00.420Z,8.78
2022-11-06T16:19:34.570Z,8.76
2022-11-06T16:24:49.280Z,8.74
2022-11-06T16:30:03.609Z,8.70
2022-11-06T16:35:33.050Z,8.59
2022-11-06T16:40:52.237Z,8.38
2022-11-06T16:46:07.937Z,8.18
2022-11-06T16:51:43.245Z,8.07
2022-11-06T16:56:46.016Z,8.01
2022-11-06T17:01:48.984Z,7.93
2022-11-06T17:06:53.917Z,7.82
2022-11-06T17:11:58.568Z,7.69
2022-11-06T17:17:02.184Z,7.55
2022-11-06T17:22:10.652Z,7.48
2022-11-06T17:27:13.448Z,7.49
2022-11-06T17:32:16.133Z,7.47
2022-11-06T17:37:22.031Z,7.45
2022-11-06T17:42:24.873Z,7.38
2022-11-06T17:47:27.622Z,7.29
2022-11-06T17:52:30.424Z,7.20
2022-11-06T17:57:33.091Z,7.18
2022-11-06T18:02:59.582Z,7.19
2022-11-06T18:07:58.875Z,7.20
2022-11-06T18:13:02.301Z,7.17
2022-11-06T18:18:05.025Z,7.12
2022-11-06T18:23:07.698Z,7.06
2022-11-06T18:28:10.516Z,7.01
2022-11-06T18:33:13.314Z,6.97
2022-11-06T18:38:16.744Z,6.91
2022-11-06T18:43:20.044Z,6.84
2022-11-06T18:48:23.026Z,6.75
2022-11-06T18:53:26.028Z,6.66
2022-11-06T18:58:28.858Z,6.59
2022-11-06T19:03:31.662Z,6.55
2022-11-06T19:08:34.562Z,6.53
2022-11-06T19:13:39.347Z,6.50
2022-11-06T19:18:43.779Z,6.45
2022-11-06T19:23:46.762Z,6.38
2022-11-06T19:28:51.152Z,6.34
2022-11-06T19:33:54.188Z,6.34
2022-11-06T19:38:58.654Z,6.33
2022-11-06T19:44:01.488Z,6.31
2022-11-06T19:49:08.827Z,6.25
2022-11-06T19:54:11.655Z,6.22
2022-11-06T19:59:14.461Z,6.22
2022-11-06T20:04:17.340Z,6.21
2022-11-06T20:09:20.028Z,6.15
2022-11-06T20:14:22.769Z,6.10
2022-11-06T20:19:25.558Z,6.04
2022-11-06T20:24:28.309Z,6.03
2022-11-06T20:29:31.060Z,6.04
2022-11-06T20:34:34.061Z,6.03
2022-11-06T20:39:36.866Z,6.01
2022-11-06T20:44:39.666Z,5.96
2022-11-06T20:49:43.190Z,5.95
2022-11-06T20:54:47.714Z,5.97
2022-11-06T20:59:50.693Z,5.95
2022-11-06T21:04:53.411Z,5.95
2022-11-06T21:09:56.153Z,5.89
2022-11-06T21:14:58.890Z,5.88
2022-11-06T21:20:01.608Z,5.88
2022-11-06T21:25:04.641Z,5.87
2022-11-06T21:30:08.228Z,5.83
2022-11-06T21:35:10.904Z,5.78
2022-11-06T21:40:17.413Z,5.78
2022-11-06T21:45:20.336Z,5.77
2022-11-06T21:50:29.715Z,5.72
2022-11-06T21:55:53.920Z,5.67
2022-11-06T22:00:56.901Z,5.62
2022-11-06T22:06:11.578Z,5.57
2022-11-06T22:11:20.973Z,5.53
2022-11-06T22:16:27.126Z,5.51
2022-11-06T22:21:30.866Z,5.50
2022-11-06T22:26:35.028Z,5.47
2022-11-06T22:31:38.096Z,5.43
2022-11-06T22:36:41.614Z,5.37
2022-11-06T22:41:44.419Z,5.34
2022-11-06T22:46:47.465Z,5.31
2022-11-06T22:51:50.316Z,5.23
2022-11-06T22:56:52.997Z,5.16
2022-11-06T23:01:55.703Z,5.10
2022-11-06T23:06:58.533Z,5.06
2022-11-06T23:12:01.232Z,5.05
2022-11-06T23:17:04.518Z,5.04
2022-11-06T23:22:25.871Z,5.04
2022-11-06T23:27:28.673Z,5.05
2022-11-06T23:32:33.901Z,5.07
2022-11-06T23:37:36.828Z,5.08
2022-11-06T23:42:39.627Z,5.07
2022-11-06T23:47:42.541Z,5.03
2022-11-06T23:52:45.309Z,5.03
2022-11-06T23:57:48.076Z,5.05
